Time;durP1;ratioP1;P1;durP2;ratioP2;P2;SDS_P1;SDS_P2;PMS_P1;PMS_P2;Temp;Humidity;BMP_temperature;BMP_pressure;BME280_temperature;BME280_humidity;BME280_pressure;Samples;Min_cycle;Max_cycle;Signal;HPM_P1;HPM_P2
2021/10/20 00:00:33;;;;;;;22.83;3.33;;;6.70;95.60;;;;;;4929349;28;20397;-67
2021/10/20 00:02:58;;;;;;;1.50;1.40;;;6.60;95.90;;;;;;4932806;29;20046;-67
2021/10/20 00:05:24;;;;;;;1.60;1.27;;;6.60;96.80;;;;;;4933901;29;20391;-67
2021/10/20 00:07:50;;;;;;;1.88;1.60;;;6.60;97.30;;;;;;4932691;29;20038;-67
2021/10/20 00:10:18;;;;;;;2.50;1.50;;;6.70;97.80;;;;;;4935148;29;20523;-67
2021/10/20 00:12:44;;;;;;;2.20;1.60;;;6.60;97.90;;;;;;4931935;29;20047;-67
2021/10/20 00:15:15;;;;;;;2.00;1.80;;;6.60;98.30;;;;;;4941032;29;20409;-67
2021/10/20 00:17:41;;;;;;;2.28;1.92;;;6.60;98.20;;;;;;4932281;29;20889;-67
2021/10/20 00:20:12;;;;;;;2.40;2.20;;;6.70;97.90;;;;;;4926634;29;20214;-67
2021/10/20 00:22:39;;;;;;;3.88;2.47;;;6.90;97.80;;;;;;4932507;29;20052;-67
2021/10/20 00:25:06;;;;;;;4.72;2.45;;;6.90;98.40;;;;;;4934109;29;20087;-68
2021/10/20 00:27:32;;;;;;;2.42;2.22;;;6.90;99.50;;;;;;4932199;29;20040;-67
2021/10/20 00:29:58;;;;;;;3.15;2.40;;;6.80;99.50;;;;;;4932140;29;20480;-67
2021/10/20 00:32:24;;;;;;;3.17;2.20;;;6.80;99.70;;;;;;4932821;28;20039;-67
2021/10/20 00:34:49;;;;;;;2.10;1.90;;;6.70;99.20;;;;;;4933645;29;20102;-67
2021/10/20 00:37:15;;;;;;;1.75;1.60;;;6.70;97.80;;;;;;4933650;29;20027;-68
2021/10/20 00:39:41;;;;;;;2.72;2.30;;;6.70;97.10;;;;;;4932974;29;20039;-67
2021/10/20 00:42:06;;;;;;;2.47;1.92;;;6.70;98.60;;;;;;4947336;28;20023;-67
2021/10/20 00:44:55;;;;;;;1.63;1.52;;;6.60;99.60;;;;;;4946163;28;20035;-67
2021/10/20 00:47:22;;;;;;;2.38;1.80;;;6.60;98.60;;;;;;4935746;29;20539;-67
2021/10/20 00:49:49;;;;;;;2.20;1.98;;;6.60;99.00;;;;;;4935808;29;20027;-67
2021/10/20 00:52:16;;;;;;;1.92;1.80;;;6.60;98.90;;;;;;4924782;29;20092;-68
2021/10/20 00:54:42;;;;;;;2.60;2.03;;;6.50;97.60;;;;;;4938184;29;20081;-67
2021/10/20 00:57:09;;;;;;;2.00;1.90;;;6.50;97.20;;;;;;4936877;28;20035;-67
2021/10/20 00:59:36;;;;;;;2.05;1.83;;;6.50;97.40;;;;;;4930554;29;20032;-67
2021/10/20 01:02:02;;;;;;;1.98;1.85;;;6.50;97.30;;;;;;4930174;28;20504;-67
2021/10/20 01:04:28;;;;;;;2.13;1.92;;;6.60;97.80;;;;;;4950925;28;20087;-67
2021/10/20 01:06:53;;;;;;;1.80;1.70;;;6.50;98.30;;;;;;4958248;28;20496;-67
2021/10/20 01:09:19;;;;;;;2.60;2.10;;;6.60;97.60;;;;;;4946409;28;20543;-67
2021/10/20 01:11:46;;;;;;;2.88;2.05;;;6.50;97.70;;;;;;4928472;29;20028;-67
2021/10/20 01:14:12;;;;;;;2.38;2.00;;;6.50;98.60;;;;;;4935383;29;20425;-67
2021/10/20 01:16:39;;;;;;;1.92;1.67;;;6.40;99.00;;;;;;4935063;29;20078;-67
2021/10/20 01:19:06;;;;;;;2.97;1.88;;;6.50;98.80;;;;;;4937289;29;20090;-67
2021/10/20 01:21:32;;;;;;;4.70;2.22;;;6.60;98.60;;;;;;4937537;28;20489;-67
2021/10/20 01:23:58;;;;;;;2.05;1.85;;;6.60;97.90;;;;;;4932095;29;20183;-67
2021/10/20 01:26:24;;;;;;;2.40;2.20;;;6.70;97.80;;;;;;4930726;29;20126;-67
2021/10/20 01:28:51;;;;;;;2.97;1.92;;;6.70;97.60;;;;;;4933921;29;20028;-67
2021/10/20 01:31:17;;;;;;;2.80;2.22;;;6.70;97.40;;;;;;4932380;28;20044;-67
2021/10/20 01:33:42;;;;;;;2.53;2.00;;;6.70;97.70;;;;;;4934699;29;20024;-67
2021/10/20 01:36:09;;;;;;;2.92;1.98;;;6.50;97.80;;;;;;4935793;29;20039;-67
2021/10/20 01:38:35;;;;;;;2.25;2.00;;;6.40;97.50;;;;;;4936323;28;20034;-68
2021/10/20 01:41:02;;;;;;;2.28;1.73;;;6.40;98.50;;;;;;4933667;29;20481;-67
2021/10/20 01:43:48;;;;;;;5.22;2.13;;;6.40;98.20;;;;;;4935260;29;20110;-67
2021/10/20 01:46:19;;;;;;;2.72;1.70;;;6.30;97.90;;;;;;4932661;29;20401;-68
2021/10/20 01:48:46;;;;;;;4.25;1.73;;;6.30;97.60;;;;;;4937986;29;20039;-67
2021/10/20 01:51:13;;;;;;;2.95;1.70;;;6.20;97.40;;;;;;4941660;29;20035;-67
2021/10/20 01:53:39;;;;;;;2.90;2.28;;;6.20;97.90;;;;;;4934605;29;20027;-67
2021/10/20 01:56:06;;;;;;;2.00;1.80;;;6.20;98.50;;;;;;4934886;29;20480;-68
2021/10/20 01:58:32;;;;;;;2.50;1.95;;;6.20;98.60;;;;;;4934053;29;20400;-67
2021/10/20 02:00:57;;;;;;;2.50;1.83;;;6.30;98.30;;;;;;4936733;28;20397;-67
2021/10/20 02:03:27;;;;;;;2.92;2.08;;;6.30;97.80;;;;;;4935384;29;20035;-67
2021/10/20 02:05:54;;;;;;;2.75;1.85;;;6.30;97.80;;;;;;4939938;29;20027;-67
2021/10/20 02:08:19;;;;;;;1.75;1.65;;;6.30;97.30;;;;;;4931250;29;20036;-68
2021/10/20 02:10:45;;;;;;;1.90;1.80;;;6.30;97.10;;;;;;4938662;29;20520;-67
2021/10/20 02:13:11;;;;;;;1.85;1.70;;;6.20;97.00;;;;;;4936445;29;20052;-67
2021/10/20 02:15:36;;;;;;;2.65;1.52;;;6.20;97.40;;;;;;4934895;29;20028;-67
2021/10/20 02:18:02;;;;;;;1.83;1.50;;;6.20;97.20;;;;;;4937575;29;20091;-67
2021/10/20 02:20:28;;;;;;;6.50;1.95;;;6.20;96.90;;;;;;4934869;29;20024;-68
2021/10/20 02:22:54;;;;;;;1.73;1.63;;;6.20;96.90;;;;;;4935592;29;20040;-67
2021/10/20 02:25:20;;;;;;;2.10;1.70;;;6.20;97.20;;;;;;4937872;29;20534;-68
2021/10/20 02:27:46;;;;;;;1.95;1.63;;;6.20;97.40;;;;;;4934345;28;20027;-67
2021/10/20 02:30:12;;;;;;;2.20;1.70;;;6.20;97.10;;;;;;4933887;28;20039;-67
2021/10/20 02:32:38;;;;;;;2.47;1.73;;;6.20;96.00;;;;;;4933280;29;20059;-67
2021/10/20 02:35:05;;;;;;;2.55;1.98;;;6.10;95.90;;;;;;4932506;29;20021;-67
2021/10/20 02:37:31;;;;;;;2.08;1.80;;;6.10;97.30;;;;;;4938377;29;20039;-67
2021/10/20 02:39:56;;;;;;;2.22;1.75;;;6.00;98.10;;;;;;4934110;29;20020;-67
2021/10/20 02:42:22;;;;;;;2.05;1.70;;;6.00;98.40;;;;;;4933135;29;20059;-67
2021/10/20 02:44:48;;;;;;;4.28;1.60;;;6.00;98.20;;;;;;4943697;28;20039;-67
2021/10/20 02:47:13;;;;;;;2.00;1.80;;;6.00;97.90;;;;;;4937712;29;20057;-67
2021/10/20 02:49:39;;;;;;;1.88;1.67;;;6.00;98.20;;;;;;4943199;28;20438;-67
2021/10/20 02:52:05;;;;;;;3.55;1.80;;;6.00;99.00;;;;;;4941145;29;20047;-67
2021/10/20 02:54:30;;;;;;;1.95;1.55;;;6.00;99.90;;;;;;4934773;29;20454;-67
2021/10/20 02:56:56;;;;;;;3.47;1.95;;;5.90;99.90;;;;;;4934989;29;20055;-68
2021/10/20 02:59:22;;;;;;;2.97;2.10;;;6.00;99.90;;;;;;4931725;29;20034;-67
2021/10/20 03:01:47;;;;;;;3.83;2.20;;;6.00;99.90;;;;;;4934861;28;20039;-67
2021/10/20 03:04:13;;;;;;;2.70;2.33;;;6.10;99.90;;;;;;4933704;29;20131;-67
2021/10/20 03:06:38;;;;;;;2.53;2.33;;;6.10;99.90;;;;;;4936878;29;20039;-67
2021/10/20 03:09:04;;;;;;;1.80;1.60;;;6.00;99.90;;;;;;4936684;29;20689;-67
2021/10/20 03:11:30;;;;;;;2.60;2.03;;;6.00;99.90;;;;;;4933412;29;20388;-67
2021/10/20 03:13:57;;;;;;;2.28;1.95;;;6.00;99.90;;;;;;4939820;28;20103;-67
2021/10/20 03:16:22;;;;;;;2.70;2.20;;;6.00;99.90;;;;;;4951721;28;20692;-67
2021/10/20 03:18:48;;;;;;;2.20;1.83;;;6.10;99.60;;;;;;4933477;29;20060;-67
2021/10/20 03:21:14;;;;;;;2.53;1.88;;;6.10;99.60;;;;;;4938161;29;20031;-67
2021/10/20 03:23:39;;;;;;;3.30;1.90;;;6.10;99.30;;;;;;4930828;29;20032;-67
2021/10/20 03:26:05;;;;;;;5.78;2.25;;;6.10;99.60;;;;;;4928065;29;20094;-67
2021/10/20 03:28:30;;;;;;;2.00;1.80;;;6.10;99.60;;;;;;4935437;29;20035;-67
2021/10/20 03:30:56;;;;;;;2.35;1.98;;;6.00;98.90;;;;;;4933451;28;20397;-67
2021/10/20 03:33:22;;;;;;;4.07;2.00;;;6.00;99.00;;;;;;4933512;29;20042;-67
2021/10/20 03:35:47;;;;;;;2.63;1.58;;;6.00;98.60;;;;;;4934599;28;20087;-67
2021/10/20 03:38:14;;;;;;;2.80;1.88;;;5.90;97.90;;;;;;4947115;28;20027;-67
2021/10/20 03:40:39;;;;;;;1.70;1.60;;;5.80;97.10;;;;;;4934133;29;20396;-67
2021/10/20 03:43:05;;;;;;;2.10;1.90;;;5.80;97.40;;;;;;4935248;29;20051;-67
2021/10/20 03:45:31;;;;;;;2.13;1.50;;;5.80;97.90;;;;;;4931557;29;20039;-68
2021/10/20 03:47:57;;;;;;;1.92;1.80;;;5.80;98.20;;;;;;4932561;29;20031;-67
2021/10/20 03:50:23;;;;;;;3.75;2.00;;;5.80;98.50;;;;;;4936329;29;20035;-67
2021/10/20 03:52:49;;;;;;;2.00;1.70;;;5.70;98.30;;;;;;4934615;29;20036;-68
2021/10/20 03:55:14;;;;;;;3.50;2.28;;;5.80;98.10;;;;;;4931314;29;20030;-67
2021/10/20 03:57:41;;;;;;;2.00;1.63;;;5.70;98.10;;;;;;4935999;29;20073;-67
2021/10/20 04:00:11;;;;;;;2.00;1.80;;;5.70;97.50;;;;;;4923098;29;20024;-67
2021/10/20 04:02:42;;;;;;;4.28;2.10;;;5.60;97.60;;;;;;4945156;28;20552;-67
2021/10/20 04:05:08;;;;;;;2.35;1.98;;;5.70;98.20;;;;;;4932525;29;20139;-68
2021/10/20 04:07:34;;;;;;;3.78;2.13;;;5.60;98.30;;;;;;4930256;29;20036;-67
2021/10/20 04:10:00;;;;;;;4.80;2.35;;;5.60;99.00;;;;;;4938581;29;20027;-67
2021/10/20 04:12:25;;;;;;;7.88;2.33;;;5.70;98.90;;;;;;4937208;29;20139;-67
2021/10/20 04:14:51;;;;;;;4.10;2.45;;;5.70;98.40;;;;;;4933135;29;20066;-67
2021/10/20 04:17:16;;;;;;;3.50;1.92;;;5.80;98.20;;;;;;4935974;29;20038;-67
2021/10/20 04:19:42;;;;;;;3.00;2.05;;;5.80;98.20;;;;;;4934467;29;20030;-67
2021/10/20 04:22:08;;;;;;;3.38;2.33;;;5.80;98.20;;;;;;4935771;29;20039;-67
2021/10/20 04:24:33;;;;;;;3.08;2.10;;;5.70;97.70;;;;;;4935983;29;20028;-67
2021/10/20 04:26:59;;;;;;;2.38;1.63;;;5.60;97.20;;;;;;4934201;29;20031;-67
2021/10/20 04:29:25;;;;;;;2.40;2.22;;;5.50;97.40;;;;;;4931305;29;20549;-67
2021/10/20 04:31:50;;;;;;;1.80;1.70;;;5.40;97.00;;;;;;4946352;28;20241;-67
2021/10/20 04:34:16;;;;;;;2.88;1.60;;;5.30;97.60;;;;;;4930304;29;20110;-68
2021/10/20 04:36:42;;;;;;;2.42;2.05;;;5.30;98.40;;;;;;4931161;29;20082;-67
2021/10/20 04:39:07;;;;;;;2.83;1.70;;;5.30;98.10;;;;;;4932645;28;20576;-67
2021/10/20 04:41:33;;;;;;;1.63;1.48;;;5.30;98.40;;;;;;4933273;29;20034;-68
2021/10/20 04:43:58;;;;;;;2.38;1.88;;;5.40;98.60;;;;;;4931953;29;20031;-68
2021/10/20 04:46:24;;;;;;;2.53;1.90;;;5.40;98.10;;;;;;4932725;29;20493;-67
2021/10/20 04:48:50;;;;;;;3.25;1.90;;;5.50;98.10;;;;;;4923187;29;20080;-67
2021/10/20 04:51:16;;;;;;;2.55;2.30;;;5.50;97.80;;;;;;4941579;29;20034;-67
2021/10/20 04:53:42;;;;;;;2.50;2.17;;;5.50;98.00;;;;;;4946159;28;20047;-67
2021/10/20 04:56:07;;;;;;;2.58;2.20;;;5.60;97.80;;;;;;4935883;29;20087;-67
2021/10/20 04:58:33;;;;;;;3.33;2.20;;;5.60;97.70;;;;;;4928092;29;20019;-67
2021/10/20 05:00:58;;;;;;;3.40;2.10;;;5.60;97.90;;;;;;4947420;28;20036;-66
2021/10/20 05:03:24;;;;;;;4.97;2.00;;;5.50;97.40;;;;;;4932348;29;20074;-67
2021/10/20 05:05:50;;;;;;;4.03;2.05;;;5.50;97.50;;;;;;4932518;29;20031;-67
2021/10/20 05:08:15;;;;;;;2.95;2.20;;;5.50;97.70;;;;;;4933861;29;20039;-68
2021/10/20 05:10:41;;;;;;;5.72;2.42;;;5.50;98.20;;;;;;4935732;29;20035;-67
2021/10/20 05:13:07;;;;;;;2.10;1.90;;;5.40;98.60;;;;;;4944373;29;20444;-67
2021/10/20 05:15:32;;;;;;;2.60;1.77;;;5.40;98.60;;;;;;4935073;29;20071;-67
2021/10/20 05:17:58;;;;;;;2.00;1.90;;;5.40;98.40;;;;;;4953114;28;20031;-67
2021/10/20 05:20:24;;;;;;;2.13;1.88;;;5.30;98.30;;;;;;4951905;28;20092;-67
2021/10/20 05:22:50;;;;;;;3.25;1.83;;;5.20;98.90;;;;;;4944033;29;20118;-67
2021/10/20 05:25:17;;;;;;;1.70;1.60;;;5.20;97.60;;;;;;4950429;28;20655;-67
2021/10/20 05:27:44;;;;;;;1.90;1.70;;;5.10;98.00;;;;;;4955143;28;20520;-67
2021/10/20 05:30:11;;;;;;;2.72;2.20;;;5.00;98.40;;;;;;4950398;28;20046;-67
2021/10/20 05:32:37;;;;;;;3.42;2.33;;;5.00;98.60;;;;;;4932383;29;20039;-67
2021/10/20 05:35:04;;;;;;;2.50;1.90;;;5.10;98.60;;;;;;4938135;29;20031;-67
2021/10/20 05:37:29;;;;;;;2.30;1.90;;;5.10;98.90;;;;;;4940861;29;20070;-67
2021/10/20 05:39:55;;;;;;;3.38;2.38;;;5.00;99.30;;;;;;4936252;28;20031;-67
2021/10/20 05:42:20;;;;;;;6.60;2.15;;;5.10;99.50;;;;;;4934797;29;20032;-67
2021/10/20 05:44:47;;;;;;;4.93;2.00;;;5.20;99.20;;;;;;4933774;29;20050;-67
2021/10/20 05:47:13;;;;;;;4.00;2.17;;;5.20;99.00;;;;;;4937106;29;20054;-67
2021/10/20 05:49:39;;;;;;;2.75;2.55;;;5.20;98.80;;;;;;4937239;29;20107;-67
2021/10/20 05:52:06;;;;;;;5.72;2.65;;;5.20;98.80;;;;;;4936183;28;20098;-67
2021/10/20 05:54:32;;;;;;;3.80;2.20;;;5.20;99.00;;;;;;4934916;29;20031;-67
2021/10/20 05:56:58;;;;;;;2.28;2.00;;;5.20;98.70;;;;;;4937747;29;20114;-67
2021/10/20 05:59:23;;;;;;;3.63;2.25;;;5.10;98.40;;;;;;4938074;28;20024;-68
2021/10/20 06:01:50;;;;;;;2.40;2.20;;;5.20;98.70;;;;;;4934192;28;20039;-67
2021/10/20 06:04:19;;;;;;;3.50;2.20;;;5.20;98.60;;;;;;4939352;28;20038;-67
2021/10/20 06:06:46;;;;;;;3.45;2.15;;;5.20;98.70;;;;;;4949879;28;20035;-67
2021/10/20 06:09:12;;;;;;;4.22;2.88;;;5.30;99.00;;;;;;4939525;28;20039;-67
2021/10/20 06:11:38;;;;;;;4.57;2.83;;;5.30;98.80;;;;;;4933705;29;20111;-67
2021/10/20 06:14:04;;;;;;;4.45;2.85;;;5.40;98.80;;;;;;4934992;29;20067;-67
2021/10/20 06:16:32;;;;;;;4.63;2.38;;;5.30;97.80;;;;;;4936252;29;20024;-67
2021/10/20 06:18:58;;;;;;;2.58;2.28;;;5.10;97.50;;;;;;4935038;29;20503;-67
2021/10/20 06:21:23;;;;;;;3.22;2.92;;;5.20;97.90;;;;;;4935329;29;20031;-67
2021/10/20 06:23:51;;;;;;;3.83;2.47;;;5.10;97.60;;;;;;4933431;29;20060;-67
2021/10/20 06:26:16;;;;;;;2.67;2.20;;;5.10;97.90;;;;;;4934549;29;20027;-67
2021/10/20 06:28:42;;;;;;;7.80;2.75;;;5.20;98.20;;;;;;4934180;29;20038;-67
2021/10/20 06:31:08;;;;;;;2.95;2.60;;;5.20;98.50;;;;;;4934404;28;20095;-66
2021/10/20 06:33:34;;;;;;;3.25;2.47;;;5.20;99.60;;;;;;4949143;29;20055;-68
2021/10/20 06:36:01;;;;;;;3.00;2.40;;;5.30;99.90;;;;;;4934523;29;20047;-68
2021/10/20 06:38:27;;;;;;;4.03;2.55;;;5.30;99.90;;;;;;4936673;28;20028;-67
2021/10/20 06:40:53;;;;;;;3.65;2.92;;;5.40;99.90;;;;;;4935002;29;20496;-68
2021/10/20 06:43:18;;;;;;;5.07;2.78;;;5.40;99.90;;;;;;4933798;29;20055;-68
2021/10/20 06:45:44;;;;;;;5.43;2.60;;;5.40;99.90;;;;;;4949140;28;20039;-67
2021/10/20 06:48:10;;;;;;;3.58;2.88;;;5.50;99.90;;;;;;4934382;29;20039;-67
2021/10/20 06:50:36;;;;;;;7.18;3.15;;;5.50;99.90;;;;;;4933832;29;20046;-67
2021/10/20 06:53:01;;;;;;;5.25;2.92;;;5.50;99.90;;;;;;4933272;29;20502;-67
2021/10/20 06:55:27;;;;;;;3.80;2.88;;;5.60;99.90;;;;;;4936321;28;20036;-67
2021/10/20 06:57:53;;;;;;;2.97;2.53;;;5.70;99.90;;;;;;4931557;29;20030;-67
2021/10/20 07:00:20;;;;;;;3.55;2.80;;;5.70;99.90;;;;;;4932350;29;20110;-67
2021/10/20 07:02:45;;;;;;;4.82;3.35;;;5.70;99.90;;;;;;4948021;28;20052;-67
2021/10/20 07:05:11;;;;;;;3.95;3.08;;;5.80;99.90;;;;;;4933274;29;20522;-67
2021/10/20 07:07:37;;;;;;;5.40;3.25;;;5.90;99.90;;;;;;4933535;29;20039;-68
2021/10/20 07:10:03;;;;;;;5.03;2.95;;;6.00;99.90;;;;;;4931659;29;20464;-67
2021/10/20 07:12:31;;;;;;;4.15;3.03;;;6.10;99.90;;;;;;4932562;29;20059;-68
2021/10/20 07:14:58;;;;;;;3.70;2.85;;;6.10;99.90;;;;;;4934385;29;20020;-67
2021/10/20 07:17:24;;;;;;;7.30;3.15;;;6.20;99.90;;;;;;4931012;29;20035;-67
2021/10/20 07:19:50;;;;;;;6.20;3.28;;;6.30;99.90;;;;;;4949367;29;20050;-67
2021/10/20 07:22:15;;;;;;;7.18;3.75;;;6.40;99.90;;;;;;4932879;29;20059;-67
2021/10/20 07:24:41;;;;;;;4.35;3.10;;;6.50;99.90;;;;;;4933808;29;20401;-67
2021/10/20 07:27:07;;;;;;;5.80;3.55;;;6.60;99.90;;;;;;4932255;29;20537;-68
2021/10/20 07:29:33;;;;;;;5.20;3.55;;;6.70;99.90;;;;;;4933210;29;20098;-68
2021/10/20 07:31:59;;;;;;;4.75;3.72;;;6.80;99.90;;;;;;4932559;28;20044;-68
2021/10/20 07:34:24;;;;;;;4.82;3.40;;;7.00;99.90;;;;;;4933444;29;20475;-68
2021/10/20 07:36:50;;;;;;;5.60;3.65;;;7.20;99.90;;;;;;4933950;29;20020;-68
2021/10/20 07:39:16;;;;;;;5.20;3.70;;;7.50;99.90;;;;;;4931811;29;20034;-68
2021/10/20 07:41:42;;;;;;;5.05;3.00;;;7.60;99.90;;;;;;4933269;29;20425;-68
2021/10/20 07:44:08;;;;;;;4.40;3.60;;;7.80;99.90;;;;;;4931688;29;20472;-68
2021/10/20 07:46:34;;;;;;;4.10;3.25;;;7.90;99.90;;;;;;4933608;29;20027;-68
2021/10/20 07:49:00;;;;;;;7.72;4.18;;;8.00;99.90;;;;;;4932392;29;20038;-68
2021/10/20 07:51:26;;;;;;;6.05;3.83;;;8.20;99.90;;;;;;4934184;29;20031;-68
2021/10/20 07:53:52;;;;;;;5.90;3.92;;;8.40;99.90;;;;;;4932982;29;20832;-68
2021/10/20 07:56:17;;;;;;;5.35;3.47;;;8.50;99.90;;;;;;4931865;29;20116;-68
2021/10/20 07:58:43;;;;;;;5.32;3.40;;;8.70;99.90;;;;;;4947955;28;20032;-68
2021/10/20 08:01:11;;;;;;;4.88;3.65;;;8.90;99.90;;;;;;4928933;28;20083;-68
2021/10/20 08:03:37;;;;;;;5.38;3.58;;;9.00;99.90;;;;;;4932784;29;20039;-67
2021/10/20 08:06:02;;;;;;;6.97;3.78;;;9.30;99.90;;;;;;4932853;29;20044;-67
2021/10/20 08:08:28;;;;;;;5.20;3.70;;;9.40;99.90;;;;;;4933071;29;20035;-67
2021/10/20 08:10:54;;;;;;;4.35;3.38;;;9.50;99.90;;;;;;4947115;28;20059;-67
2021/10/20 08:13:19;;;;;;;4.95;3.30;;;9.70;99.90;;;;;;4921510;29;20456;-67
2021/10/20 08:15:45;;;;;;;7.40;3.83;;;9.90;99.90;;;;;;4934668;29;20167;-67
2021/10/20 08:18:11;;;;;;;4.78;3.42;;;10.00;99.90;;;;;;4933613;29;20035;-67
2021/10/20 08:20:37;;;;;;;4.78;3.35;;;10.20;99.90;;;;;;4943844;28;20419;-68
2021/10/20 08:23:05;;;;;;;5.32;3.67;;;10.30;99.70;;;;;;4928039;29;20047;-67
2021/10/20 08:25:34;;;;;;;5.45;3.60;;;10.50;99.50;;;;;;4932473;29;20108;-67
2021/10/20 08:28:00;;;;;;;4.22;3.60;;;10.70;99.60;;;;;;4927155;29;20032;-67
2021/10/20 08:30:26;;;;;;;6.65;3.72;;;10.80;98.60;;;;;;4930929;28;20035;-67
2021/10/20 08:32:56;;;;;;;6.03;3.95;;;11.00;98.90;;;;;;4932437;29;20036;-66
2021/10/20 08:35:23;;;;;;;5.70;3.67;;;11.10;97.70;;;;;;4932050;29;20026;-67
2021/10/20 08:37:56;;;;;;;5.78;3.58;;;11.30;97.00;;;;;;4932850;29;20035;-67
2021/10/20 08:40:29;;;;;;;5.85;3.70;;;11.40;96.90;;;;;;4932196;29;20794;-67
2021/10/20 08:42:56;;;;;;;5.60;3.63;;;11.50;97.00;;;;;;4926885;29;20554;-67
2021/10/20 08:45:22;;;;;;;6.85;3.90;;;11.70;96.90;;;;;;4936296;29;20027;-67
2021/10/20 08:47:48;;;;;;;6.80;3.67;;;11.80;97.40;;;;;;4936137;29;20055;-67
2021/10/20 08:50:26;;;;;;;4.88;3.90;;;12.10;96.40;;;;;;4935931;29;20031;-67
2021/10/20 08:52:52;;;;;;;6.35;3.47;;;12.20;95.80;;;;;;4936641;29;20040;-67
2021/10/20 08:55:20;;;;;;;5.07;3.45;;;12.30;94.60;;;;;;4934390;29;20146;-67
2021/10/20 08:57:48;;;;;;;6.82;3.63;;;12.40;94.10;;;;;;4935881;29;20023;-68
2021/10/20 09:00:15;;;;;;;4.85;3.70;;;12.60;93.90;;;;;;4935573;29;20067;-68
2021/10/20 09:02:41;;;;;;;5.47;3.15;;;12.70;94.00;;;;;;4935734;28;20118;-68
2021/10/20 09:05:12;;;;;;;4.45;3.42;;;12.80;93.00;;;;;;4936624;29;20107;-68
2021/10/20 09:07:46;;;;;;;4.38;3.00;;;12.80;92.80;;;;;;4932133;29;20028;-68
2021/10/20 09:10:13;;;;;;;6.82;3.55;;;12.90;93.30;;;;;;4936649;29;20038;-68
2021/10/20 09:12:42;;;;;;;5.70;3.08;;;13.00;93.20;;;;;;4934035;29;20031;-68
2021/10/20 09:15:11;;;;;;;3.17;2.88;;;13.20;92.90;;;;;;4935773;29;20511;-66
2021/10/20 09:17:45;;;;;;;4.38;3.20;;;13.20;92.80;;;;;;4936073;28;20027;-68
2021/10/20 09:20:22;;;;;;;5.78;3.25;;;13.40;92.20;;;;;;4934442;29;20039;-68
2021/10/20 09:23:10;;;;;;;3.83;2.90;;;13.50;91.90;;;;;;4934209;29;20054;-67
2021/10/20 09:25:58;;;;;;;3.45;2.95;;;13.60;91.80;;;;;;4934713;29;20063;-67
2021/10/20 09:28:26;;;;;;;4.15;2.65;;;13.80;90.50;;;;;;4928897;29;20054;-67
2021/10/20 09:30:57;;;;;;;3.47;2.70;;;13.90;89.80;;;;;;4934486;28;20043;-67
2021/10/20 09:33:23;;;;;;;2.70;2.50;;;13.90;87.30;;;;;;4934770;29;20028;-67
2021/10/20 09:35:49;;;;;;;4.22;2.60;;;13.90;88.00;;;;;;4942573;29;20035;-68
2021/10/20 09:38:15;;;;;;;3.47;2.60;;;14.10;87.90;;;;;;4935713;29;20087;-67
2021/10/20 09:40:49;;;;;;;4.10;2.97;;;14.20;85.80;;;;;;4932790;29;20090;-67
2021/10/20 09:43:20;;;;;;;4.28;2.90;;;14.20;85.80;;;;;;4934623;29;20660;-67
2021/10/20 09:45:47;;;;;;;3.83;3.00;;;14.20;84.00;;;;;;4934153;29;20095;-68
2021/10/20 09:48:16;;;;;;;5.00;2.83;;;14.10;85.00;;;;;;4934611;29;20032;-67
2021/10/20 09:51:03;;;;;;;3.80;2.65;;;14.20;84.20;;;;;;4938306;29;20040;-67
2021/10/20 09:53:31;;;;;;;3.65;2.70;;;14.40;84.00;;;;;;4927963;29;20485;-67
2021/10/20 09:56:00;;;;;;;5.20;3.10;;;14.60;83.10;;;;;;4944792;29;20113;-67
2021/10/20 09:58:26;;;;;;;4.40;2.83;;;14.60;82.70;;;;;;4928143;29;20032;-68
2021/10/20 10:00:55;;;;;;;3.47;2.60;;;14.70;82.40;;;;;;4934289;29;20031;-68
2021/10/20 10:03:22;;;;;;;2.63;2.42;;;14.90;83.00;;;;;;4935468;29;20450;-67
2021/10/20 10:05:48;;;;;;;4.25;2.75;;;15.00;82.50;;;;;;4932983;29;20093;-67
2021/10/20 10:08:13;;;;;;;3.78;2.40;;;15.10;81.50;;;;;;4922553;29;20480;-68
2021/10/20 10:10:39;;;;;;;4.22;3.20;;;15.20;81.10;;;;;;4933385;29;20035;-68
2021/10/20 10:13:21;;;;;;;2.92;2.60;;;15.10;84.20;;;;;;4929935;29;20051;-68
2021/10/20 10:15:48;;;;;;;4.65;2.60;;;15.40;82.60;;;;;;4934382;29;20031;-67
2021/10/20 10:18:15;;;;;;;4.90;2.80;;;15.50;81.90;;;;;;4939379;29;20027;-67
2021/10/20 10:20:44;;;;;;;4.43;2.88;;;15.50;80.00;;;;;;4935829;29;20063;-68
2021/10/20 10:23:23;;;;;;;3.05;2.40;;;15.50;77.90;;;;;;4934015;29;20032;-68
2021/10/20 10:25:57;;;;;;;5.50;2.83;;;15.70;79.10;;;;;;4934484;29;20039;-67
2021/10/20 10:28:28;;;;;;;3.10;2.72;;;15.70;79.50;;;;;;4934108;29;20063;-67
2021/10/20 10:31:12;;;;;;;4.28;3.15;;;15.70;79.30;;;;;;4935006;28;20083;-67
2021/10/20 10:33:52;;;;;;;3.80;2.83;;;15.80;81.00;;;;;;4947350;28;20031;-67
2021/10/20 10:36:23;;;;;;;3.78;2.42;;;15.80;77.30;;;;;;4945003;29;20169;-67
2021/10/20 10:38:58;;;;;;;3.85;2.70;;;15.90;77.40;;;;;;4934329;29;20059;-68
2021/10/20 10:41:42;;;;;;;3.92;2.58;;;16.00;78.90;;;;;;4931298;29;20055;-68
2021/10/20 10:44:08;;;;;;;2.60;2.40;;;16.00;78.60;;;;;;4934010;29;20132;-68
2021/10/20 10:46:35;;;;;;;2.80;2.50;;;16.20;76.30;;;;;;4931955;29;20046;-68
2021/10/20 10:49:03;;;;;;;4.50;2.33;;;16.20;75.50;;;;;;4932962;29;20413;-67
2021/10/20 10:51:30;;;;;;;3.65;2.28;;;16.40;76.20;;;;;;4935750;29;20043;-67
2021/10/20 10:53:59;;;;;;;5.13;2.60;;;16.40;76.00;;;;;;4947840;29;20032;-67
2021/10/20 10:56:26;;;;;;;3.33;2.55;;;16.20;77.00;;;;;;4931018;29;21604;-68
2021/10/20 10:59:12;;;;;;;6.00;2.85;;;16.20;77.70;;;;;;4934023;29;20027;-68
2021/10/20 11:01:48;;;;;;;3.50;2.30;;;16.30;76.30;;;;;;4946468;28;20036;-67
2021/10/20 11:04:22;;;;;;;4.72;2.88;;;16.40;77.10;;;;;;4933980;29;20374;-67
2021/10/20 11:06:56;;;;;;;2.88;2.28;;;16.40;75.80;;;;;;4937486;29;20050;-67
2021/10/20 11:09:34;;;;;;;4.45;2.80;;;16.60;75.80;;;;;;4935927;29;20405;-67
2021/10/20 11:12:03;;;;;;;3.40;2.55;;;16.60;74.50;;;;;;4945918;28;20028;-68
2021/10/20 11:14:30;;;;;;;4.70;2.70;;;16.50;75.70;;;;;;4933596;29;20052;-67
2021/10/20 11:17:14;;;;;;;4.78;2.75;;;16.60;75.50;;;;;;4932368;29;20720;-67
2021/10/20 11:19:40;;;;;;;2.83;2.55;;;16.90;76.00;;;;;;4948499;29;20739;-67
2021/10/20 11:22:06;;;;;;;3.75;2.42;;;16.90;74.50;;;;;;4946918;28;20039;-67
2021/10/20 11:24:41;;;;;;;3.75;2.20;;;17.00;74.10;;;;;;4933299;29;20035;-68
2021/10/20 11:27:07;;;;;;;3.67;2.67;;;17.00;73.30;;;;;;4946424;28;20067;-67
2021/10/20 11:29:46;;;;;;;4.25;2.20;;;17.10;72.30;;;;;;4934243;29;20032;-67
2021/10/20 11:32:14;;;;;;;3.90;2.42;;;17.10;73.40;;;;;;4932297;28;20060;-67
2021/10/20 11:34:43;;;;;;;2.03;1.75;;;17.10;71.40;;;;;;4933462;29;20031;-67
2021/10/20 11:37:10;;;;;;;1.88;1.73;;;16.90;71.40;;;;;;4929689;29;20054;-67
2021/10/20 11:39:40;;;;;;;6.13;4.25;;;16.80;70.80;;;;;;4932963;29;20421;-67
2021/10/20 11:42:09;;;;;;;2.72;2.40;;;16.80;70.00;;;;;;4931533;29;20504;-68
2021/10/20 11:44:37;;;;;;;2.35;2.15;;;16.90;70.60;;;;;;4933461;29;20147;-67
2021/10/20 11:47:06;;;;;;;2.88;1.90;;;17.00;71.80;;;;;;4948036;28;20070;-67
2021/10/20 11:49:35;;;;;;;2.42;2.22;;;17.20;71.60;;;;;;4934589;29;20028;-67
2021/10/20 11:52:04;;;;;;;3.80;2.33;;;17.20;72.10;;;;;;4932684;28;20042;-67
2021/10/20 11:54:30;;;;;;;3.28;2.40;;;17.20;70.10;;;;;;4932122;29;20028;-67
2021/10/20 11:56:58;;;;;;;2.72;2.20;;;17.10;69.80;;;;;;4931912;29;20135;-68
2021/10/20 11:59:26;;;;;;;4.67;2.23;;;17.00;70.00;;;;;;4948681;28;20039;-68
2021/10/20 12:01:52;;;;;;;3.10;2.33;;;17.00;70.20;;;;;;4931162;28;20040;-67
2021/10/20 12:04:20;;;;;;;3.03;2.05;;;17.10;71.20;;;;;;4930721;29;20062;-68
2021/10/20 12:06:48;;;;;;;3.85;3.10;;;17.10;70.10;;;;;;4921490;29;20728;-68
2021/10/20 12:09:14;;;;;;;;;;;17.00;70.00;;;;;;4920882;29;20028;-67
2021/10/20 12:11:41;;;;;;;3.90;2.40;;;17.10;71.50;;;;;;4931605;29;19918;-67
2021/10/20 12:14:09;;;;;;;4.53;2.30;;;17.00;71.10;;;;;;4921585;29;20079;-67
2021/10/20 12:16:36;;;;;;;2.92;2.55;;;17.00;69.50;;;;;;4931952;29;20171;-67
2021/10/20 12:19:02;;;;;;;4.38;2.05;;;16.90;69.20;;;;;;4932518;29;20493;-67
2021/10/20 12:21:31;;;;;;;4.47;2.38;;;16.90;69.50;;;;;;4933226;29;20027;-67
2021/10/20 12:23:59;;;;;;;3.03;2.47;;;16.90;69.40;;;;;;4941643;29;20031;-67
2021/10/20 12:26:28;;;;;;;;;;;16.90;71.00;;;;;;4933620;29;20504;-67
2021/10/20 12:28:55;;;;;;;2.78;2.20;;;16.90;71.60;;;;;;4932398;29;19918;-67
2021/10/20 12:31:23;;;;;;;3.22;2.63;;;17.10;71.90;;;;;;4932572;28;20077;-67
2021/10/20 12:33:52;;;;;;;3.97;2.53;;;17.10;70.90;;;;;;4931510;29;20489;-68
2021/10/20 12:36:28;;;;;;;4.93;2.47;;;17.10;72.30;;;;;;4932877;29;20035;-68
2021/10/20 12:38:56;;;;;;;3.80;2.80;;;17.00;73.50;;;;;;4931529;29;20028;-68
2021/10/20 12:41:29;;;;;;;5.65;2.92;;;17.00;73.20;;;;;;4921145;29;20560;-68
2021/10/20 12:43:59;;;;;;;3.80;2.63;;;17.00;74.20;;;;;;4945887;29;20055;-68
2021/10/20 12:46:27;;;;;;;2.88;2.47;;;17.00;72.70;;;;;;4933041;29;20035;-68
2021/10/20 12:48:52;;;;;;;3.83;2.78;;;17.00;74.50;;;;;;4932273;29;20035;-68
2021/10/20 12:51:24;;;;;;;6.97;2.70;;;17.00;71.60;;;;;;4937258;29;20493;-68
2021/10/20 12:53:54;;;;;;;3.67;2.60;;;17.00;71.90;;;;;;4931116;29;20028;-68